Time;durP1;ratioP1;P1;durP2;ratioP2;P2;SDS_P1;SDS_P2;PMS_P1;PMS_P2;Temp;Humidity;BMP_temperature;BMP_pressure;BME280_temperature;BME280_humidity;BME280_pressure;Samples;Min_cycle;Max_cycle;Signal;HPM_P1;HPM_P2
2021/07/19 00:00:35;;;;;;;9.13;6.57;;;;;;;;;;5110251;27;20458;-71
2021/07/19 00:05:10;;;;;;;12.20;7.15;;;;;;;;;;5069829;28;20740;-71
2021/07/19 00:07:37;;;;;;;9.07;6.13;;;;;;;;;;5069452;28;20077;-73
2021/07/19 00:10:05;;;;;;;10.32;6.72;;;;;;;;;;5069735;28;20480;-71
2021/07/19 00:12:45;;;;;;;10.02;6.65;;;;;;;;;;5110378;27;20408;-71
2021/07/19 00:15:13;;;;;;;9.85;6.95;;;;;;;;;;5110264;28;20028;-71
2021/07/19 00:18:15;;;;;;;11.00;7.40;;;;;;;;;;5110508;27;20861;-73
2021/07/19 00:20:41;;;;;;;11.07;7.00;;;;;;;;;;5110156;28;20024;-72
2021/07/19 00:23:07;;;;;;;11.20;7.68;;;;;;;;;;5110374;28;20487;-71
2021/07/19 00:25:33;;;;;;;15.00;7.32;;;;;;;;;;5110224;28;20024;-71
2021/07/19 00:28:29;;;;;;;9.13;6.10;;;;;;;;;;5069509;28;20430;-72
2021/07/19 00:30:55;;;;;;;10.00;6.50;;;;;;;;;;5069805;28;20028;-72
2021/07/19 00:33:21;;;;;;;7.97;5.75;;;;;;;;;;5069749;28;20542;-72
2021/07/19 00:35:47;;;;;;;10.00;5.95;;;;;;;;;;5069299;28;20082;-72
2021/07/19 00:38:14;;;;;;;11.00;6.25;;;;;;;;;;5069656;28;20504;-72
2021/07/19 00:40:40;;;;;;;9.98;5.93;;;;;;;;;;5069822;28;20052;-72
2021/07/19 00:43:06;;;;;;;10.10;6.90;;;;;;;;;;5069299;28;20024;-72
2021/07/19 00:47:25;;;;;;;8.98;6.40;;;;;;;;;;5110275;27;20397;-71
2021/07/19 00:49:51;;;;;;;8.68;5.95;;;;;;;;;;5109899;28;20387;-71
2021/07/19 00:52:17;;;;;;;13.70;6.55;;;;;;;;;;5110294;28;20034;-72
2021/07/19 00:54:45;;;;;;;9.25;5.95;;;;;;;;;;5110237;28;20092;-71
2021/07/19 00:59:05;;;;;;;12.15;6.03;;;;;;;;;;5110432;27;20824;-71
2021/07/19 01:01:32;;;;;;;10.77;5.45;;;;;;;;;;5110527;28;20024;-71
2021/07/19 01:04:16;;;;;;;11.57;7.15;;;;;;;;;;5110011;27;20392;-72
2021/07/19 01:06:44;;;;;;;8.20;5.30;;;;;;;;;;5110296;28;20044;-72
2021/07/19 01:09:10;;;;;;;8.35;5.63;;;;;;;;;;5109914;28;20112;-71
2021/07/19 01:13:47;;;;;;;9.13;6.20;;;;;;;;;;5110418;27;20857;-71
2021/07/19 01:18:00;;;;;;;9.45;6.47;;;;;;;;;;5110270;27;20839;-71
2021/07/19 01:20:31;;;;;;;11.27;7.82;;;;;;;;;;5126271;28;20081;-71
2021/07/19 01:24:38;;;;;;;11.90;8.25;;;;;;;;;;5109976;27;20385;-71
2021/07/19 01:28:30;;;;;;;9.63;5.97;;;;;;;;;;5110421;27;20393;-71
2021/07/19 01:30:58;;;;;;;10.15;6.00;;;;;;;;;;5110013;28;20092;-71
2021/07/19 01:34:48;;;;;;;9.07;5.65;;;;;;;;;;5110381;27;20400;-71
2021/07/19 01:37:14;;;;;;;10.45;6.70;;;;;;;;;;5108721;28;20027;-71
2021/07/19 01:40:32;;;;;;;9.13;6.32;;;;;;;;;;5069919;28;20407;-71
2021/07/19 01:42:58;;;;;;;10.18;6.72;;;;;;;;;;5069834;28;20020;-71
2021/07/19 01:45:25;;;;;;;11.57;6.38;;;;;;;;;;5069665;28;20096;-71
2021/07/19 01:47:51;;;;;;;8.63;5.63;;;;;;;;;;5069672;28;20052;-71
2021/07/19 01:51:40;;;;;;;9.48;6.32;;;;;;;;;;5110086;27;20393;-71
2021/07/19 01:54:06;;;;;;;10.25;7.25;;;;;;;;;;5110334;28;20032;-72
2021/07/19 01:56:45;;;;;;;13.85;7.90;;;;;;;;;;5110447;27;20464;-71
2021/07/19 02:01:06;;;;;;;14.07;9.35;;;;;;;;;;5110520;27;20888;-71
2021/07/19 02:03:33;;;;;;;14.60;8.90;;;;;;;;;;5110343;28;20057;-71
2021/07/19 02:05:59;;;;;;;9.93;6.80;;;;;;;;;;5108573;28;20028;-71
2021/07/19 02:08:26;;;;;;;14.32;9.07;;;;;;;;;;5110314;28;20020;-71
2021/07/19 02:10:54;;;;;;;15.00;10.15;;;;;;;;;;5110208;28;20111;-71
2021/07/19 02:13:21;;;;;;;11.18;7.97;;;;;;;;;;5109845;28;20065;-71
2021/07/19 02:15:49;;;;;;;9.70;6.45;;;;;;;;;;5110226;28;20024;-71
2021/07/19 02:18:16;;;;;;;9.38;6.63;;;;;;;;;;5109030;28;20125;-71
2021/07/19 02:20:43;;;;;;;12.65;7.68;;;;;;;;;;5109865;28;20055;-71
2021/07/19 02:23:10;;;;;;;9.98;6.97;;;;;;;;;;5109953;28;20022;-71
2021/07/19 02:25:36;;;;;;;9.30;5.85;;;;;;;;;;5108671;28;20032;-71
2021/07/19 02:28:04;;;;;;;8.27;5.53;;;;;;;;;;5109522;28;20072;-70
2021/07/19 02:30:31;;;;;;;10.50;6.80;;;;;;;;;;5109905;28;20387;-70
2021/07/19 02:32:58;;;;;;;10.05;6.60;;;;;;;;;;5109919;28;20020;-70
2021/07/19 02:35:25;;;;;;;11.10;6.50;;;;;;;;;;5109348;28;20525;-70
2021/07/19 02:37:53;;;;;;;9.57;6.10;;;;;;;;;;5109974;28;20076;-71
2021/07/19 02:42:55;;;;;;;11.30;7.07;;;;;;;;;;5110015;27;20896;-71
2021/07/19 02:46:42;;;;;;;13.25;6.72;;;;;;;;;;5110283;27;20397;-71
2021/07/19 02:49:11;;;;;;;10.05;7.18;;;;;;;;;;5109979;28;20080;-71
2021/07/19 02:51:38;;;;;;;11.07;7.18;;;;;;;;;;5110306;28;20053;-71
2021/07/19 02:54:05;;;;;;;9.40;6.55;;;;;;;;;;5110317;28;20345;-71
2021/07/19 02:56:35;;;;;;;10.40;6.70;;;;;;;;;;5109881;28;20527;-71
2021/07/19 03:00:55;;;;;;;9.57;6.57;;;;;;;;;;5110412;27;20401;-71
2021/07/19 03:03:29;;;;;;;12.15;8.18;;;;;;;;;;5110020;28;20392;-71
2021/07/19 03:06:21;;;;;;;11.45;7.53;;;;;;;;;;5108978;28;20032;-72
2021/07/19 03:08:48;;;;;;;8.73;6.07;;;;;;;;;;5107059;28;20060;-72
2021/07/19 03:11:26;;;;;;;10.57;6.50;;;;;;;;;;5110231;28;20022;-72
2021/07/19 03:13:57;;;;;;;11.60;7.10;;;;;;;;;;5110249;28;20103;-72
2021/07/19 03:16:25;;;;;;;13.25;8.45;;;;;;;;;;5109774;28;20527;-72
2021/07/19 03:20:51;;;;;;;9.95;6.68;;;;;;;;;;5110562;27;20753;-71
2021/07/19 03:23:19;;;;;;;10.00;6.20;;;;;;;;;;5109941;28;20057;-71
2021/07/19 03:25:46;;;;;;;9.63;6.43;;;;;;;;;;5110221;28;20028;-71
2021/07/19 03:28:12;;;;;;;11.73;7.28;;;;;;;;;;5110319;28;20066;-71
2021/07/19 03:30:40;;;;;;;10.82;7.38;;;;;;;;;;5109828;28;20016;-71
2021/07/19 03:33:07;;;;;;;12.25;6.70;;;;;;;;;;5110106;28;20170;-71
2021/07/19 03:35:33;;;;;;;11.52;8.43;;;;;;;;;;5110098;28;20031;-71
2021/07/19 03:38:01;;;;;;;11.05;6.68;;;;;;;;;;5110023;28;20020;-70
2021/07/19 03:40:27;;;;;;;10.30;7.13;;;;;;;;;;5110142;28;20031;-70
2021/07/19 03:43:00;;;;;;;9.75;6.85;;;;;;;;;;5110000;28;20435;-71
2021/07/19 03:45:27;;;;;;;11.75;6.80;;;;;;;;;;5109635;28;20020;-71
2021/07/19 03:47:53;;;;;;;13.93;7.40;;;;;;;;;;5109848;28;20024;-71
2021/07/19 03:50:21;;;;;;;11.38;6.32;;;;;;;;;;5109887;28;20112;-71
2021/07/19 03:52:47;;;;;;;11.27;7.03;;;;;;;;;;5109437;28;20475;-71
2021/07/19 03:56:06;;;;;;;10.73;7.20;;;;;;;;;;5110279;27;20414;-71
2021/07/19 03:58:33;;;;;;;13.82;8.02;;;;;;;;;;5110064;28;20505;-71
2021/07/19 04:00:59;;;;;;;10.68;7.13;;;;;;;;;;5110512;28;20055;-71
2021/07/19 04:03:28;;;;;;;9.52;6.65;;;;;;;;;;5109103;28;20051;-71
2021/07/19 04:06:00;;;;;;;12.15;7.45;;;;;;;;;;5111556;28;20031;-72
2021/07/19 04:08:28;;;;;;;12.25;6.78;;;;;;;;;;5112388;28;20020;-71
2021/07/19 04:10:54;;;;;;;11.75;6.03;;;;;;;;;;5114018;28;20072;-72
2021/07/19 04:13:21;;;;;;;10.68;6.30;;;;;;;;;;5112295;28;20027;-70
2021/07/19 04:15:50;;;;;;;10.68;6.90;;;;;;;;;;5110512;28;20080;-71
2021/07/19 04:18:47;;;;;;;9.43;6.55;;;;;;;;;;5110433;27;20984;-71
2021/07/19 04:21:13;;;;;;;9.85;6.43;;;;;;;;;;5110184;28;20059;-71
2021/07/19 04:24:34;;;;;;;9.25;6.15;;;;;;;;;;5069822;28;20853;-71
2021/07/19 04:27:00;;;;;;;9.77;6.68;;;;;;;;;;5069790;28;20377;-72
2021/07/19 04:29:27;;;;;;;9.23;6.03;;;;;;;;;;5052025;28;20425;-71
2021/07/19 04:31:57;;;;;;;10.10;6.60;;;;;;;;;;5069778;28;20392;-71
2021/07/19 04:35:20;;;;;;;10.20;6.03;;;;;;;;;;5110070;27;20405;-71
2021/07/19 04:38:23;;;;;;;9.20;6.00;;;;;;;;;;5110308;27;21048;-71
2021/07/19 04:40:51;;;;;;;12.65;7.22;;;;;;;;;;5108849;28;20031;-71
2021/07/19 04:43:17;;;;;;;13.07;8.43;;;;;;;;;;5110416;28;20545;-71
2021/07/19 04:47:56;;;;;;;9.05;5.55;;;;;;;;;;5109963;27;20509;-71
2021/07/19 04:50:22;;;;;;;10.70;6.68;;;;;;;;;;5110339;28;20102;-72
2021/07/19 04:52:49;;;;;;;12.75;7.38;;;;;;;;;;5110290;28;20070;-72
2021/07/19 04:55:19;;;;;;;12.55;8.32;;;;;;;;;;5109873;28;20020;-72
2021/07/19 04:57:47;;;;;;;18.88;10.63;;;;;;;;;;5110430;28;20024;-73
2021/07/19 05:00:14;;;;;;;17.13;9.10;;;;;;;;;;5110339;28;20492;-73
2021/07/19 05:02:40;;;;;;;21.73;11.25;;;;;;;;;;5109744;28;20103;-73
2021/07/19 05:05:07;;;;;;;17.00;11.13;;;;;;;;;;5110056;28;20035;-72
2021/07/19 05:07:34;;;;;;;14.40;9.63;;;;;;;;;;5108610;28;20038;-72
2021/07/19 05:10:01;;;;;;;15.80;8.80;;;;;;;;;;5109595;28;20020;-73
2021/07/19 05:12:28;;;;;;;10.70;7.68;;;;;;;;;;5109960;28;20048;-73
2021/07/19 05:15:09;;;;;;;12.85;7.80;;;;;;;;;;5110346;27;20903;-76
2021/07/19 05:17:36;;;;;;;11.20;7.10;;;;;;;;;;5110809;28;20039;-75
2021/07/19 05:20:31;;;;;;;8.77;5.55;;;;;;;;;;5075387;27;1607722;-74
2021/07/19 05:22:58;;;;;;;9.18;5.75;;;;;;;;;;5092276;28;20391;-73
2021/07/19 05:26:56;;;;;;;15.48;6.10;;;;;;;;;;5069647;28;20404;-74
2021/07/19 05:29:22;;;;;;;8.75;6.10;;;;;;;;;;5069346;28;20485;-74
2021/07/19 05:31:48;;;;;;;10.23;5.53;;;;;;;;;;5069672;28;20036;-74
2021/07/19 05:34:14;;;;;;;8.18;6.00;;;;;;;;;;5069701;28;20418;-74
2021/07/19 05:36:41;;;;;;;9.63;5.65;;;;;;;;;;5069513;28;20021;-74
2021/07/19 05:39:07;;;;;;;9.18;6.32;;;;;;;;;;5069858;28;20049;-75
2021/07/19 05:41:33;;;;;;;7.85;5.43;;;;;;;;;;5068094;28;20521;-67
2021/07/19 05:43:59;;;;;;;10.82;6.72;;;;;;;;;;5067776;28;20029;-69
2021/07/19 05:46:25;;;;;;;10.38;6.35;;;;;;;;;;5069363;28;20496;-69
2021/07/19 05:48:52;;;;;;;11.48;5.55;;;;;;;;;;5067403;28;20028;-69
2021/07/19 05:51:18;;;;;;;9.07;5.50;;;;;;;;;;5068472;28;20021;-68
2021/07/19 05:53:44;;;;;;;9.07;5.18;;;;;;;;;;5068961;28;20016;-69
2021/07/19 05:56:10;;;;;;;8.68;5.78;;;;;;;;;;5069147;28;20439;-69
2021/07/19 05:58:37;;;;;;;9.13;5.72;;;;;;;;;;5068635;28;20028;-68
2021/07/19 06:01:03;;;;;;;9.85;6.80;;;;;;;;;;5068745;28;20099;-68
2021/07/19 06:03:29;;;;;;;8.55;5.63;;;;;;;;;;5068814;28;20048;-68
2021/07/19 06:05:55;;;;;;;10.57;5.88;;;;;;;;;;5068150;28;20032;-69
2021/07/19 06:08:21;;;;;;;8.20;5.03;;;;;;;;;;5068762;28;20028;-69
2021/07/19 06:10:48;;;;;;;8.85;6.30;;;;;;;;;;5068750;28;20413;-68
2021/07/19 06:13:14;;;;;;;11.50;5.68;;;;;;;;;;5066975;28;20107;-68
2021/07/19 06:15:40;;;;;;;8.55;5.15;;;;;;;;;;5068799;28;20047;-68
2021/07/19 06:19:09;;;;;;;9.10;5.13;;;;;;;;;;5109849;27;20320;-68
2021/07/19 06:21:35;;;;;;;8.80;5.15;;;;;;;;;;5108730;28;20417;-68
2021/07/19 06:24:01;;;;;;;8.15;5.13;;;;;;;;;;5110166;28;20078;-69
2021/07/19 06:26:27;;;;;;;7.43;4.82;;;;;;;;;;5109760;28;20023;-67
2021/07/19 06:28:53;;;;;;;9.20;5.13;;;;;;;;;;5108661;28;20502;-69
2021/07/19 06:31:19;;;;;;;10.38;5.10;;;;;;;;;;5110040;28;20493;-67
2021/07/19 06:33:46;;;;;;;8.10;5.40;;;;;;;;;;5107727;28;20038;-69
2021/07/19 06:36:12;;;;;;;8.40;5.45;;;;;;;;;;5108377;28;20149;-69
2021/07/19 06:38:38;;;;;;;7.93;5.60;;;;;;;;;;5109517;28;20036;-69
2021/07/19 06:41:05;;;;;;;10.65;6.93;;;;;;;;;;5089169;28;20094;-68
2021/07/19 06:43:31;;;;;;;10.60;6.07;;;;;;;;;;5088110;28;20063;-67
2021/07/19 06:45:57;;;;;;;10.52;5.95;;;;;;;;;;5088117;28;20031;-70
2021/07/19 06:49:31;;;;;;;7.88;5.22;;;;;;;;;;5110131;27;20384;-71
2021/07/19 06:51:57;;;;;;;8.60;5.80;;;;;;;;;;5110211;28;20034;-70
2021/07/19 06:54:23;;;;;;;12.25;5.97;;;;;;;;;;5109790;28;20020;-71
2021/07/19 06:57:39;;;;;;;10.98;4.97;;;;;;;;;;5069837;28;20399;-71
2021/07/19 07:00:06;;;;;;;10.05;5.78;;;;;;;;;;5069775;28;20025;-71
2021/07/19 07:02:32;;;;;;;9.27;5.22;;;;;;;;;;5069129;28;20111;-71
2021/07/19 07:04:58;;;;;;;10.70;5.43;;;;;;;;;;5069554;28;20059;-71
2021/07/19 07:07:24;;;;;;;8.35;5.00;;;;;;;;;;5068136;28;20020;-71
2021/07/19 07:09:50;;;;;;;8.60;5.20;;;;;;;;;;5069060;28;20021;-70
2021/07/19 07:12:16;;;;;;;9.68;5.22;;;;;;;;;;5069519;28;20060;-71
2021/07/19 07:14:42;;;;;;;11.80;5.47;;;;;;;;;;5069181;28;20021;-72
2021/07/19 07:17:09;;;;;;;9.25;5.00;;;;;;;;;;5069313;28;20047;-72
2021/07/19 07:19:35;;;;;;;8.73;5.22;;;;;;;;;;5069269;28;20017;-71
2021/07/19 07:22:01;;;;;;;9.20;5.68;;;;;;;;;;5068959;28;20032;-72
2021/07/19 07:24:27;;;;;;;8.15;5.43;;;;;;;;;;5067997;28;20027;-72
2021/07/19 07:26:54;;;;;;;10.65;5.32;;;;;;;;;;5069273;28;20436;-72
2021/07/19 07:31:18;;;;;;;8.02;4.65;;;;;;;;;;5110307;27;20462;-71
2021/07/19 07:33:44;;;;;;;9.68;5.95;;;;;;;;;;5110525;28;20052;-71
2021/07/19 07:36:10;;;;;;;9.27;5.22;;;;;;;;;;5110425;28;20024;-70
2021/07/19 07:38:37;;;;;;;7.53;5.03;;;;;;;;;;5111093;28;20375;-70
2021/07/19 07:41:03;;;;;;;7.25;4.40;;;;;;;;;;5110776;28;20024;-70
2021/07/19 07:43:30;;;;;;;6.93;4.78;;;;;;;;;;5108885;28;20024;-71
2021/07/19 07:45:56;;;;;;;14.07;5.82;;;;;;;;;;5110209;28;20024;-71
2021/07/19 07:48:23;;;;;;;17.77;5.28;;;;;;;;;;5110034;28;20027;-70
2021/07/19 07:50:49;;;;;;;10.05;6.05;;;;;;;;;;5109574;28;20040;-71
2021/07/19 07:53:15;;;;;;;6.95;4.63;;;;;;;;;;5107039;28;20024;-71
2021/07/19 07:55:41;;;;;;;7.75;4.97;;;;;;;;;;5109976;28;20027;-71
2021/07/19 07:58:08;;;;;;;8.15;5.40;;;;;;;;;;5109362;28;20020;-70
2021/07/19 08:00:34;;;;;;;10.57;5.47;;;;;;;;;;5109569;28;20028;-71
2021/07/19 08:03:00;;;;;;;9.23;6.47;;;;;;;;;;5109772;28;20043;-71
2021/07/19 08:05:27;;;;;;;7.90;5.65;;;;;;;;;;5110391;28;20031;-71
2021/07/19 08:07:53;;;;;;;8.63;6.10;;;;;;;;;;5109641;28;20513;-71
2021/07/19 08:10:19;;;;;;;8.13;5.30;;;;;;;;;;5109287;28;20062;-71
2021/07/19 08:12:46;;;;;;;9.25;5.78;;;;;;;;;;5109226;28;20027;-71
2021/07/19 08:15:16;;;;;;;9.00;6.50;;;;;;;;;;5106976;28;20538;-74
2021/07/19 08:17:42;;;;;;;8.45;6.00;;;;;;;;;;5109961;28;20027;-76
2021/07/19 08:20:09;;;;;;;12.05;6.75;;;;;;;;;;5109072;28;20055;-72
2021/07/19 08:22:36;;;;;;;15.43;6.95;;;;;;;;;;5109258;28;20020;-72
2021/07/19 08:25:02;;;;;;;8.55;5.90;;;;;;;;;;5107596;28;20065;-73
2021/07/19 08:27:28;;;;;;;10.27;6.60;;;;;;;;;;5109158;28;20028;-74
2021/07/19 08:29:55;;;;;;;9.63;6.25;;;;;;;;;;5108963;28;20060;-75
2021/07/19 08:32:21;;;;;;;9.20;6.22;;;;;;;;;;5108804;28;20024;-72
2021/07/19 08:34:48;;;;;;;10.02;6.88;;;;;;;;;;5109429;28;20104;-75
2021/07/19 08:37:15;;;;;;;9.70;6.78;;;;;;;;;;5109107;28;20048;-73
2021/07/19 08:39:41;;;;;;;9.73;7.32;;;;;;;;;;5108530;28;20049;-73
2021/07/19 08:42:12;;;;;;;12.13;6.78;;;;;;;;;;5097765;28;20021;-74
2021/07/19 08:44:38;;;;;;;11.20;7.57;;;;;;;;;;5095273;28;20479;-73
2021/07/19 08:47:08;;;;;;;10.45;6.82;;;;;;;;;;5093597;28;20057;-74
2021/07/19 08:49:34;;;;;;;13.43;9.88;;;;;;;;;;5095257;28;20098;-73
2021/07/19 08:52:01;;;;;;;9.90;7.53;;;;;;;;;;5095220;28;20024;-75
2021/07/19 08:54:28;;;;;;;11.90;6.60;;;;;;;;;;5094858;28;20480;-73
2021/07/19 08:56:58;;;;;;;7.63;5.68;;;;;;;;;;5095329;28;20039;-74
2021/07/19 08:59:25;;;;;;;14.88;6.80;;;;;;;;;;5095278;28;20426;-74
2021/07/19 09:01:51;;;;;;;10.23;6.97;;;;;;;;;;5094685;28;20044;-73
2021/07/19 09:04:18;;;;;;;9.50;6.15;;;;;;;;;;5093523;28;20031;-74
2021/07/19 09:06:45;;;;;;;10.00;6.50;;;;;;;;;;5095213;28;20030;-75
2021/07/19 09:09:11;;;;;;;11.10;6.32;;;;;;;;;;5094478;28;20024;-75
2021/07/19 09:11:48;;;;;;;12.15;6.45;;;;;;;;;;5095152;28;20112;-73
2021/07/19 09:14:14;;;;;;;9.55;6.50;;;;;;;;;;5093204;28;20078;-75
2021/07/19 09:16:41;;;;;;;11.50;6.72;;;;;;;;;;5094657;28;20109;-69
2021/07/19 09:19:09;;;;;;;10.65;6.00;;;;;;;;;;5094670;28;20114;-72
2021/07/19 09:21:37;;;;;;;10.02;6.63;;;;;;;;;;5094274;28;20024;-70
2021/07/19 09:24:04;;;;;;;9.88;6.75;;;;;;;;;;5094558;28;20149;-73
2021/07/19 09:26:31;;;;;;;10.93;7.10;;;;;;;;;;5094304;28;20100;-70
2021/07/19 09:28:58;;;;;;;10.95;7.25;;;;;;;;;;5093884;28;20467;-72
2021/07/19 09:31:43;;;;;;;11.50;7.82;;;;;;;;;;5094429;28;20069;-71
2021/07/19 09:34:15;;;;;;;12.52;8.75;;;;;;;;;;5094649;28;20028;-72
2021/07/19 09:36:54;;;;;;;13.25;7.70;;;;;;;;;;5094140;28;20028;-75
2021/07/19 09:39:20;;;;;;;11.05;7.38;;;;;;;;;;5094402;28;20027;-74
2021/07/19 09:41:46;;;;;;;12.80;8.23;;;;;;;;;;5094153;28;20024;-74
2021/07/19 09:44:13;;;;;;;12.13;7.65;;;;;;;;;;5093698;28;20476;-75
2021/07/19 09:46:40;;;;;;;12.13;8.65;;;;;;;;;;5094094;28;20032;-75
2021/07/19 09:49:06;;;;;;;12.45;8.35;;;;;;;;;;5094143;28;20066;-74
2021/07/19 09:51:33;;;;;;;12.80;9.00;;;;;;;;;;5093639;28;20353;-73
2021/07/19 09:54:29;;;;;;;13.57;9.05;;;;;;;;;;5093115;28;20099;-76
2021/07/19 09:57:00;;;;;;;12.07;8.05;;;;;;;;;;5076772;28;20040;-75
2021/07/19 09:59:27;;;;;;;16.45;8.95;;;;;;;;;;5092776;28;20024;-70
2021/07/19 10:01:53;;;;;;;14.05;9.13;;;;;;;;;;5093931;28;20315;-70
2021/07/19 10:04:21;;;;;;;11.15;8.48;;;;;;;;;;5093445;28;20024;-70
2021/07/19 10:06:58;;;;;;;16.20;8.90;;;;;;;;;;5092458;28;20107;-70
2021/07/19 10:09:24;;;;;;;14.45;10.07;;;;;;;;;;5093691;28;20036;-71
2021/07/19 10:11:52;;;;;;;14.82;10.30;;;;;;;;;;5093287;28;20024;-70
2021/07/19 10:14:33;;;;;;;11.25;9.13;;;;;;;;;;5093586;28;20033;-70
2021/07/19 10:17:00;;;;;;;13.77;10.25;;;;;;;;;;5093623;28;20020;-69
2021/07/19 10:19:27;;;;;;;13.45;8.75;;;;;;;;;;5093081;28;20376;-70
2021/07/19 10:21:54;;;;;;;10.95;8.95;;;;;;;;;;5093494;28;20031;-70
2021/07/19 10:24:21;;;;;;;12.38;8.13;;;;;;;;;;5093440;28;20035;-70
2021/07/19 10:26:48;;;;;;;11.80;8.43;;;;;;;;;;5093066;28;20030;-70
2021/07/19 10:29:15;;;;;;;13.00;9.32;;;;;;;;;;5093038;28;20051;-70
2021/07/19 10:31:41;;;;;;;12.77;8.90;;;;;;;;;;5093041;28;20395;-70
2021/07/19 10:34:08;;;;;;;11.48;7.97;;;;;;;;;;5093393;28;20016;-70
2021/07/19 10:36:34;;;;;;;13.25;7.68;;;;;;;;;;5093551;28;20035;-70
2021/07/19 10:39:02;;;;;;;11.88;7.82;;;;;;;;;;5091565;28;20033;-70
2021/07/19 10:41:29;;;;;;;10.25;8.13;;;;;;;;;;5091825;28;20028;-69
2021/07/19 10:44:02;;;;;;;13.80;9.27;;;;;;;;;;5093212;28;20024;-70
2021/07/19 10:46:28;;;;;;;11.00;7.43;;;;;;;;;;5092781;28;20161;-70
2021/07/19 10:49:04;;;;;;;11.10;6.38;;;;;;;;;;5093006;28;20020;-70
2021/07/19 10:51:38;;;;;;;10.30;6.00;;;;;;;;;;5092990;28;20028;-70
2021/07/19 10:54:14;;;;;;;11.70;6.90;;;;;;;;;;5092689;28;20522;-70
2021/07/19 10:56:40;;;;;;;10.88;6.35;;;;;;;;;;5091836;28;20085;-70
2021/07/19 10:59:07;;;;;;;12.00;8.20;;;;;;;;;;5092933;28;20032;-69
2021/07/19 11:01:34;;;;;;;12.13;6.55;;;;;;;;;;5091501;28;20460;-69
2021/07/19 11:04:01;;;;;;;10.88;6.32;;;;;;;;;;5092599;28;20048;-69
2021/07/19 11:06:48;;;;;;;10.80;6.22;;;;;;;;;;5092736;28;20031;-69
2021/07/19 11:09:15;;;;;;;14.43;7.28;;;;;;;;;;5092651;28;20020;-69
2021/07/19 11:11:42;;;;;;;11.20;7.15;;;;;;;;;;5093064;28;20028;-69
2021/07/19 11:14:17;;;;;;;11.07;7.95;;;;;;;;;;5092436;28;20026;-69
2021/07/19 11:16:45;;;;;;;8.27;5.90;;;;;;;;;;5092941;28;20024;-69
2021/07/19 11:19:12;;;;;;;13.35;6.82;;;;;;;;;;5092598;28;20035;-69
2021/07/19 11:21:38;;;;;;;10.02;6.78;;;;;;;;;;5090976;28;20077;-69
2021/07/19 11:24:09;;;;;;;8.02;5.95;;;;;;;;;;5092581;28;20411;-69
2021/07/19 11:26:46;;;;;;;10.93;6.28;;;;;;;;;;5091279;28;20030;-69
2021/07/19 11:29:13;;;;;;;9.25;5.93;;;;;;;;;;5091930;28;20560;-70
2021/07/19 11:31:39;;;;;;;9.52;6.07;;;;;;;;;;5092564;28;20090;-70
2021/07/19 11:34:05;;;;;;;11.70;5.78;;;;;;;;;;5092654;28;20484;-70
2021/07/19 11:36:33;;;;;;;14.15;6.28;;;;;;;;;;5091046;28;20051;-70
2021/07/19 11:39:04;;;;;;;8.98;5.72;;;;;;;;;;5092608;28;20016;-70
2021/07/19 11:41:32;;;;;;;9.70;5.95;;;;;;;;;;5092365;28;20027;-70
2021/07/19 11:43:59;;;;;;;12.20;5.68;;;;;;;;;;5092060;28;20047;-70
2021/07/19 11:46:31;;;;;;;9.55;5.53;;;;;;;;;;5092440;28;20035;-70
2021/07/19 11:48:59;;;;;;;9.38;5.47;;;;;;;;;;5091799;28;20035;-70
2021/07/19 11:51:27;;;;;;;9.07;6.20;;;;;;;;;;5090923;28;20043;-70
2021/07/19 11:53:54;;;;;;;9.55;5.43;;;;;;;;;;5092293;28;20079;-70
2021/07/19 11:56:20;;;;;;;10.05;4.85;;;;;;;;;;5092135;28;20056;-70
2021/07/19 11:59:00;;;;;;;9.90;5.82;;;;;;;;;;5091150;28;20536;-70
2021/07/19 12:01:30;;;;;;;10.52;5.18;;;;;;;;;;5092251;28;20035;-70
2021/07/19 12:03:57;;;;;;;8.32;5.00;;;;;;;;;;5091873;28;20300;-71
2021/07/19 12:06:24;;;;;;;9.98;4.82;;;;;;;;;;5092228;28;20029;-70
2021/07/19 12:08:54;;;;;;;8.30;5.43;;;;;;;;;;5090809;28;20024;-70
2021/07/19 12:11:21;;;;;;;9.23;4.72;;;;;;;;;;5091687;28;20082;-70
2021/07/19 12:13:47;;;;;;;10.85;5.55;;;;;;;;;;5092227;28;20016;-70
2021/07/19 12:16:14;;;;;;;8.65;5.03;;;;;;;;;;5093419;28;20379;-70
2021/07/19 12:18:41;;;;;;;9.73;4.60;;;;;;;;;;5095617;28;20020;-70
2021/07/19 12:21:12;;;;;;;9.00;5.57;;;;;;;;;;5094536;28;20024;-70
2021/07/19 12:23:39;;;;;;;10.45;5.30;;;;;;;;;;5095373;28;20028;-69
2021/07/19 12:26:06;;;;;;;8.18;4.95;;;;;;;;;;5094069;28;20028;-70
2021/07/19 12:28:32;;;;;;;9.25;5.80;;;;;;;;;;5090921;28;20026;-69
2021/07/19 12:31:20;;;;;;;7.38;5.00;;;;;;;;;;5094704;28;20476;-70
2021/07/19 12:33:47;;;;;;;9.77;4.70;;;;;;;;;;5094315;28;20020;-70
2021/07/19 12:36:17;;;;;;;8.38;5.30;;;;;;;;;;5095664;28;20160;-70
2021/07/19 12:38:44;;;;;;;13.88;5.65;;;;;;;;;;5094857;28;20020;-70
2021/07/19 12:41:11;;;;;;;9.35;5.32;;;;;;;;;;5093698;28;20023;-70
2021/07/19 12:43:38;;;;;;;11.32;5.25;;;;;;;;;;5093518;28;20495;-70
2021/07/19 12:46:04;;;;;;;9.80;5.15;;;;;;;;;;5093549;28;20093;-70
2021/07/19 12:48:31;;;;;;;10.73;5.55;;;;;;;;;;5094009;28;20047;-70
2021/07/19 12:51:00;;;;;;;8.32;5.25;;;;;;;;;;5093590;28;20039;-70
2021/07/19 12:53:32;;;;;;;9.60;5.03;;;;;;;;;;5092867;28;20051;-69
2021/07/19 12:56:15;;;;;;;9.65;5.90;;;;;;;;;;5094860;28;20426;-69
2021/07/19 12:58:57;;;;;;;9.88;5.55;;;;;;;;;;5095217;28;20016;-71
2021/07/19 13:01:36;;;;;;;9.65;5.50;;;;;;;;;;5093400;28;20016;-69
2021/07/19 13:04:07;;;;;;;8.68;6.15;;;;;;;;;;5093718;28;20115;-69
2021/07/19 13:06:34;;;;;;;11.38;5.78;;;;;;;;;;5094633;28;20493;-69
2021/07/19 13:09:01;;;;;;;15.63;5.50;;;;;;;;;;5094860;28;20383;-69
2021/07/19 13:11:36;;;;;;;7.75;5.20;;;;;;;;;;5094859;28;20093;-68
2021/07/19 13:14:28;;;;;;;10.93;5.65;;;;;;;;;;5094497;28;20107;-68
2021/07/19 13:16:59;;;;;;;7.68;4.53;;;;;;;;;;5071416;28;20036;-68
2021/07/19 13:19:35;;;;;;;8.98;5.40;;;;;;;;;;5094722;28;20020;-68
2021/07/19 13:22:02;;;;;;;8.55;5.28;;;;;;;;;;5094166;28;20384;-69
2021/07/19 13:24:44;;;;;;;7.40;5.20;;;;;;;;;;5093262;28;20028;-68
2021/07/19 13:27:13;;;;;;;7.43;4.75;;;;;;;;;;5094430;28;20043;-68
2021/07/19 13:29:39;;;;;;;7.05;5.18;;;;;;;;;;5093969;28;20055;-68
2021/07/19 13:32:07;;;;;;;7.90;5.85;;;;;;;;;;5093338;28;20024;-68
2021/07/19 13:34:33;;;;;;;7.57;4.82;;;;;;;;;;5092801;28;20024;-69
2021/07/19 13:36:59;;;;;;;8.05;4.70;;;;;;;;;;5094550;28;20035;-68
2021/07/19 13:39:27;;;;;;;6.68;4.35;;;;;;;;;;5094563;28;20035;-67
2021/07/19 13:42:04;;;;;;;10.77;4.40;;;;;;;;;;5092772;28;20039;-68
2021/07/19 13:44:32;;;;;;;8.65;4.53;;;;;;;;;;5092868;28;20031;-67
2021/07/19 13:46:58;;;;;;;6.72;4.18;;;;;;;;;;5094132;28;20023;-68
2021/07/19 13:49:25;;;;;;;8.73;5.35;;;;;;;;;;5093636;28;20052;-68
2021/07/19 13:51:51;;;;;;;6.88;4.57;;;;;;;;;;5094120;28;20625;-68
2021/07/19 13:54:17;;;;;;;9.57;5.75;;;;;;;;;;5094030;28;20032;-68
2021/07/19 13:56:43;;;;;;;9.82;5.88;;;;;;;;;;5093698;28;20044;-69
2021/07/19 13:59:09;;;;;;;9.25;5.57;;;;;;;;;;5092916;28;20035;-69
2021/07/19 14:01:36;;;;;;;8.13;5.30;;;;;;;;;;5093716;28;20020;-68
2021/07/19 14:04:02;;;;;;;8.98;4.85;;;;;;;;;;5092162;28;20053;-69
2021/07/19 14:06:29;;;;;;;7.32;4.38;;;;;;;;;;5093841;28;20477;-69
2021/07/19 14:08:55;;;;;;;9.90;5.10;;;;;;;;;;5093758;28;20024;-69
2021/07/19 14:11:21;;;;;;;7.38;4.93;;;;;;;;;;5093239;28;20038;-70
2021/07/19 14:13:47;;;;;;;10.07;4.65;;;;;;;;;;5093627;28;20032;-69
2021/07/19 14:16:14;;;;;;;7.78;4.05;;;;;;;;;;5092256;28;20047;-70
2021/07/19 14:18:40;;;;;;;10.52;4.78;;;;;;;;;;5093233;28;20022;-69
2021/07/19 14:21:10;;;;;;;7.00;4.00;;;;;;;;;;5093619;28;20027;-70
2021/07/19 14:23:36;;;;;;;10.25;5.15;;;;;;;;;;5093646;28;20021;-69
2021/07/19 14:26:03;;;;;;;8.35;6.03;;;;;;;;;;5093066;28;20065;-70
2021/07/19 14:28:29;;;;;;;7.95;4.93;;;;;;;;;;5093330;28;20028;-69
2021/07/19 14:30:56;;;;;;;7.00;4.32;;;;;;;;;;5092790;28;20052;-70
2021/07/19 14:33:22;;;;;;;9.30;4.93;;;;;;;;;;5093302;28;20383;-68
2021/07/19 14:35:49;;;;;;;8.60;5.13;;;;;;;;;;5092201;28;20052;-70
2021/07/19 14:38:15;;;;;;;7.78;4.18;;;;;;;;;;5093049;28;20023;-70
2021/07/19 14:40:41;;;;;;;8.52;4.70;;;;;;;;;;5092731;28;20020;-69
2021/07/19 14:43:07;;;;;;;10.77;4.38;;;;;;;;;;5093183;28;20095;-69
2021/07/19 14:45:34;;;;;;;7.10;4.22;;;;;;;;;;5092837;28;20020;-69
2021/07/19 14:48:04;;;;;;;9.65;5.07;;;;;;;;;;5093049;28;20031;-69
2021/07/19 14:50:30;;;;;;;8.07;4.38;;;;;;;;;;5091970;28;20181;-69
2021/07/19 14:52:56;;;;;;;7.28;4.28;;;;;;;;;;5092648;28;20020;-69
2021/07/19 14:55:22;;;;;;;10.25;5.20;;;;;;;;;;5093040;28;20472;-70
2021/07/19 14:57:49;;;;;;;8.95;6.03;;;;;;;;;;5093070;28;20051;-70
2021/07/19 15:00:16;;;;;;;6.30;4.10;;;;;;;;;;5092486;28;20031;-70
2021/07/19 15:02:42;;;;;;;8.48;5.45;;;;;;;;;;5092905;28;20529;-70
2021/07/19 15:05:09;;;;;;;6.65;4.47;;;;;;;;;;5092809;28;20032;-70
2021/07/19 15:07:36;;;;;;;6.93;4.85;;;;;;;;;;5092474;28;20020;-70
2021/07/19 15:10:04;;;;;;;9.65;5.20;;;;;;;;;;5091357;28;20028;-70
2021/07/19 15:12:30;;;;;;;10.18;5.78;;;;;;;;;;5092677;28;20024;-70
2021/07/19 15:14:56;;;;;;;8.70;5.38;;;;;;;;;;5092500;28;20024;-69
2021/07/19 15:17:23;;;;;;;10.73;5.00;;;;;;;;;;5092824;28;20488;-69
2021/07/19 15:19:49;;;;;;;8.40;5.20;;;;;;;;;;5091470;28;20653;-69